createdAt,value
2023-01-01T00:00:21.010Z,2.800
2023-01-01T00:01:22.387Z,2.700
2023-01-01T00:02:24.902Z,2.650
2023-01-01T00:03:20.575Z,2.850
2023-01-01T00:04:35.373Z,2.900
2023-01-01T00:05:31.650Z,2.950
2023-01-01T00:06:27.504Z,2.800
2023-01-01T00:07:45.194Z,2.950
2023-01-01T00:08:29.576Z,3.100
2023-01-01T00:09:36.936Z,2.750
2023-01-01T00:10:20.407Z,3.000
2023-01-01T00:11:31.412Z,2.800
2023-01-01T00:12:29.116Z,2.950
2023-01-01T00:13:22.387Z,2.900
2023-01-01T00:14:33.748Z,2.700
2023-01-01T00:15:24.133Z,2.550
2023-01-01T00:16:25.309Z,2.650
2023-01-01T00:17:23.632Z,2.800
2023-01-01T00:18:32.886Z,2.900
2023-01-01T00:19:26.197Z,2.950
2023-01-01T00:20:35.460Z,2.400
2023-01-01T00:21:33.647Z,2.750
2023-01-01T00:22:53.468Z,2.900
2023-01-01T00:23:19.522Z,3.050
2023-01-01T00:24:20.932Z,2.600
2023-01-01T00:25:30.158Z,2.600
2023-01-01T00:26:32.756Z,2.750
2023-01-01T00:27:22.324Z,2.700
2023-01-01T00:28:21.233Z,2.700
2023-01-01T00:29:32.607Z,2.950
2023-01-01T00:30:24.156Z,2.600
2023-01-01T00:31:22.553Z,2.850
2023-01-01T00:32:31.558Z,2.850
2023-01-01T00:33:26.047Z,2.700
2023-01-01T00:34:23.058Z,3.000
2023-01-01T00:35:24.432Z,2.850
2023-01-01T00:36:27.995Z,2.600
2023-01-01T00:37:25.351Z,2.500
2023-01-01T00:38:21.269Z,2.700
2023-01-01T00:39:19.587Z,2.800
2023-01-01T00:40:26.508Z,2.900
2023-01-01T00:41:22.114Z,2.600
2023-01-01T00:42:26.598Z,2.900
2023-01-01T00:43:29.287Z,2.900
2023-01-01T00:44:24.138Z,2.950
2023-01-01T00:45:22.881Z,2.800
2023-01-01T00:46:23.701Z,2.950
2023-01-01T00:47:26.677Z,2.900
2023-01-01T00:48:23.059Z,2.800
2023-01-01T00:49:32.366Z,3.200
2023-01-01T00:50:28.038Z,2.750
2023-01-01T00:51:24.034Z,2.700
2023-01-01T00:52:21.123Z,2.800
2023-01-01T00:53:30.398Z,2.800
2023-01-01T00:54:20.765Z,2.700
2023-01-01T00:55:22.082Z,3.000
2023-01-01T00:56:32.836Z,2.700
2023-01-01T00:57:19.939Z,2.850
2023-01-01T00:58:24.019Z,2.800
2023-01-01T00:59:28.344Z,2.800
2023-01-01T01:00:29.713Z,2.700
2023-01-01T01:01:20.323Z,2.700
2023-01-01T01:02:22.413Z,2.800
2023-01-01T01:03:34.063Z,2.950
2023-01-01T01:04:22.603Z,2.850
2023-01-01T01:05:25.022Z,2.800
2023-01-01T01:06:20.723Z,2.850
2023-01-01T01:07:31.441Z,2.900
2023-01-01T01:08:31.074Z,3.100
2023-01-01T01:09:21.922Z,3.050
2023-01-01T01:10:32.154Z,2.900
2023-01-01T01:11:29.912Z,3.000
2023-01-01T01:12:24.502Z,3.100
2023-01-01T01:13:20.262Z,3.000
2023-01-01T01:14:29.910Z,3.000
2023-01-01T01:15:20.615Z,2.800
2023-01-01T01:16:22.089Z,3.200
2023-01-01T01:17:32.682Z,3.000
2023-01-01T01:18:28.688Z,3.000
2023-01-01T01:19:21.144Z,2.900
2023-01-01T01:20:22.563Z,3.000
2023-01-01T01:21:31.885Z,3.000
2023-01-01T01:22:29.020Z,2.900
2023-01-01T01:23:22.303Z,2.850
2023-01-01T01:24:35.691Z,2.850
2023-01-01T01:25:28.969Z,2.800
2023-01-01T01:26:24.296Z,2.850
2023-01-01T01:27:21.776Z,2.800
2023-01-01T01:28:48.845Z,2.950
2023-01-01T01:29:26.742Z,2.900
2023-01-01T01:30:22.219Z,2.750
2023-01-01T01:31:24.099Z,2.850
2023-01-01T01:32:21.719Z,3.100
2023-01-01T01:33:24.221Z,2.750
2023-01-01T01:34:27.200Z,2.850
2023-01-01T01:35:31.806Z,2.600
2023-01-01T01:36:22.478Z,2.800
2023-01-01T01:37:22.327Z,2.950
2023-01-01T01:38:28.550Z,2.750
2023-01-01T01:39:23.431Z,2.700
2023-01-01T01:40:24.664Z,3.100
2023-01-01T01:41:27.988Z,2.750
2023-01-01T01:42:30.608Z,2.600
2023-01-01T01:43:27.466Z,2.900
2023-01-01T01:44:22.199Z,3.200
2023-01-01T01:45:35.565Z,2.900
2023-01-01T01:46:29.564Z,2.550
2023-01-01T01:47:20.389Z,2.700
2023-01-01T01:48:20.289Z,2.800
2023-01-01T01:49:30.027Z,2.900
2023-01-01T01:50:27.981Z,2.800
2023-01-01T01:51:23.343Z,2.950
2023-01-01T01:52:38.714Z,2.800
2023-01-01T01:53:26.947Z,2.550
2023-01-01T01:54:25.749Z,3.050
2023-01-01T01:55:20.136Z,2.700
2023-01-01T01:56:32.931Z,2.800
2023-01-01T01:57:41.390Z,2.900
2023-01-01T01:58:22.168Z,2.700
2023-01-01T01:59:34.200Z,2.850
2023-01-01T02:00:30.249Z,3.000
2023-01-01T02:08:36.409Z,2.700
2023-01-01T02:09:22.282Z,2.700
2023-01-01T02:10:30.341Z,2.700
2023-01-01T02:15:19.750Z,2.800
2023-01-01T02:15:26.076Z,3.000
2023-01-01T02:17:24.570Z,2.800
2023-01-01T02:18:26.790Z,2.600
2023-01-01T02:19:24.684Z,3.000
2023-01-01T02:20:22.722Z,2.900
2023-01-01T02:21:24.980Z,3.200
2023-01-01T02:22:23.925Z,2.850
2023-01-01T02:23:21.944Z,2.600
2023-01-01T02:24:27.317Z,2.650
2023-01-01T02:25:20.905Z,2.800
2023-01-01T02:26:39.112Z,2.800
2023-01-01T02:27:25.004Z,2.700
2023-01-01T02:28:28.407Z,2.750
2023-01-01T02:29:26.006Z,2.600
2023-01-01T02:30:20.053Z,2.750
2023-01-01T02:31:23.369Z,2.900
2023-01-01T02:32:27.785Z,2.700
2023-01-01T02:33:22.464Z,3.000
2023-01-01T02:34:27.468Z,2.950
2023-01-01T02:35:28.436Z,2.900
2023-01-01T02:36:26.360Z,2.700
2023-01-01T02:37:19.946Z,2.700
2023-01-01T02:38:26.367Z,2.950
2023-01-01T02:39:27.330Z,2.800
2023-01-01T02:40:23.658Z,2.700
2023-01-01T02:41:32.087Z,2.750
2023-01-01T02:42:28.300Z,2.800
2023-01-01T02:43:25.104Z,2.900
2023-01-01T02:44:21.592Z,2.800
2023-01-01T02:45:25.450Z,2.750
2023-01-01T02:46:26.256Z,2.700
2023-01-01T02:47:24.437Z,3.100
2023-01-01T02:48:36.271Z,2.700
2023-01-01T02:49:23.610Z,2.750
2023-01-01T02:50:24.329Z,2.750
2023-01-01T02:51:20.434Z,2.800
2023-01-01T02:52:31.931Z,2.900
2023-01-01T02:53:26.178Z,2.700
2023-01-01T02:54:22.510Z,2.950
2023-01-01T02:55:21.706Z,2.750
2023-01-01T02:56:23.933Z,2.600
2023-01-01T02:57:24.870Z,2.750
2023-01-01T02:58:22.405Z,2.600
2023-01-01T02:59:33.488Z,2.750
2023-01-01T03:00:19.716Z,2.500
2023-01-01T03:01:22.446Z,2.750
2023-01-01T03:02:25.383Z,2.650
2023-01-01T03:03:28.123Z,2.600
2023-01-01T03:04:24.266Z,2.900
2023-01-01T03:05:20.328Z,2.800
2023-01-01T03:06:26.204Z,2.750
2023-01-01T03:07:21.897Z,2.900
2023-01-01T03:08:24.282Z,2.600
2023-01-01T03:09:34.904Z,2.700
2023-01-01T03:10:22.248Z,2.800
2023-01-01T03:11:24.188Z,2.800
2023-01-01T03:12:20.426Z,2.800
2023-01-01T03:13:30.452Z,2.950
2023-01-01T03:14:28.278Z,2.700
2023-01-01T03:15:22.159Z,2.900
2023-01-01T03:16:36.083Z,2.850
2023-01-01T03:17:22.512Z,2.850
2023-01-01T03:18:19.907Z,2.700
2023-01-01T03:19:20.246Z,2.900
2023-01-01T03:20:31.223Z,2.200
2023-01-01T03:21:27.633Z,3.050
2023-01-01T03:22:22.127Z,2.800
2023-01-01T03:23:26.650Z,2.900
2023-01-01T03:24:32.971Z,2.750
2023-01-01T03:25:24.419Z,2.700
2023-01-01T03:26:20.803Z,2.650
2023-01-01T03:27:30.423Z,2.800
2023-01-01T03:28:26.522Z,2.750
2023-01-01T03:29:22.152Z,2.750
2023-01-01T03:30:32.455Z,2.900
2023-01-01T03:31:29.944Z,2.700
2023-01-01T03:32:29.272Z,2.700
2023-01-01T03:33:21.632Z,2.850
2023-01-01T03:34:24.191Z,2.900
2023-01-01T03:35:35.778Z,2.900
2023-01-01T03:36:23.713Z,2.900
2023-01-01T03:37:33.629Z,2.750
2023-01-01T03:38:29.024Z,3.000
2023-01-01T03:39:24.603Z,2.800
2023-01-01T03:40:20.064Z,3.000
2023-01-01T03:41:42.639Z,2.850
2023-01-01T03:42:26.406Z,3.000
2023-01-01T03:43:23.661Z,2.700
2023-01-01T03:44:32.859Z,2.900
2023-01-01T03:45:20.443Z,3.000
2023-01-01T03:46:24.821Z,3.000
2023-01-01T03:47:20.507Z,2.950
2023-01-01T03:48:23.412Z,2.900
2023-01-01T03:49:27.133Z,2.900
2023-01-01T03:50:22.442Z,3.000
2023-01-01T03:51:25.960Z,2.800
2023-01-01T03:52:29.617Z,3.000
2023-01-01T03:53:24.347Z,2.800
2023-01-01T03:54:22.529Z,3.000
2023-01-01T03:55:30.421Z,2.800
2023-01-01T03:56:20.531Z,3.000
2023-01-01T03:57:22.516Z,2.700
2023-01-01T03:58:33.460Z,2.800
2023-01-01T03:59:28.292Z,2.800
2023-01-01T04:00:27.652Z,2.800
2023-01-01T04:01:34.466Z,2.800
2023-01-01T04:02:51.842Z,2.850
2023-01-01T04:03:36.947Z,3.000
2023-01-01T04:04:42.119Z,3.000
2023-01-01T04:05:36.862Z,2.850
2023-01-01T04:06:41.257Z,2.600
2023-01-01T04:07:51.727Z,3.000
2023-01-01T04:08:52.895Z,2.800
2023-01-01T04:09:43.045Z,3.000
2023-01-01T04:10:42.474Z,3.100
2023-01-01T04:11:31.274Z,2.900
2023-01-01T04:12:44.520Z,2.900
2023-01-01T04:13:42.312Z,3.000
2023-01-01T04:14:32.567Z,3.100
2023-01-01T04:15:28.065Z,2.700
2023-01-01T04:16:49.190Z,3.100
2023-01-01T04:17:39.183Z,2.900
2023-01-01T04:18:33.431Z,3.000
2023-01-01T04:19:38.894Z,3.000
2023-01-01T04:20:43.396Z,3.100
2023-01-01T04:21:36.942Z,2.900
2023-01-01T04:22:32.048Z,2.950
2023-01-01T04:23:29.859Z,3.000
2023-01-01T04:24:40.998Z,2.950
2023-01-01T04:25:33.786Z,2.800
2023-01-01T04:26:39.069Z,2.950
2023-01-01T04:27:41.437Z,3.000
2023-01-01T04:28:41.881Z,2.950
2023-01-01T04:29:39.350Z,2.900
2023-01-01T04:30:28.211Z,3.000
2023-01-01T04:31:29.957Z,2.800
2023-01-01T04:32:24.713Z,2.900
2023-01-01T04:33:25.937Z,2.950
2023-01-01T04:34:25.814Z,2.900
2023-01-01T04:35:27.129Z,2.900
2023-01-01T04:36:22.858Z,2.700
2023-01-01T04:37:32.921Z,3.000
2023-01-01T04:38:32.970Z,2.950
2023-01-01T04:39:27.109Z,3.300
2023-01-01T04:40:31.698Z,3.000
2023-01-01T04:41:30.098Z,3.000
2023-01-01T04:42:33.972Z,2.900
2023-01-01T04:43:28.190Z,2.900
2023-01-01T04:44:39.157Z,2.950
2023-01-01T04:45:31.563Z,3.200
2023-01-01T04:46:34.547Z,3.150
2023-01-01T04:47:34.889Z,2.700
2023-01-01T04:48:29.829Z,3.000
2023-01-01T04:49:32.223Z,2.900
2023-01-01T04:50:27.381Z,3.000
2023-01-01T04:51:45.725Z,3.200
2023-01-01T04:52:20.494Z,2.800
2023-01-01T04:53:39.923Z,3.050
2023-01-01T04:54:35.766Z,3.300
2023-01-01T04:55:31.478Z,3.200
2023-01-01T04:56:31.157Z,3.150
2023-01-01T04:57:21.725Z,3.100
2023-01-01T04:58:20.413Z,3.100
2023-01-01T04:59:24.505Z,3.000
2023-01-01T05:00:22.523Z,3.100
2023-01-01T05:01:33.250Z,2.900
2023-01-01T05:02:35.108Z,3.100
2023-01-01T05:03:24.334Z,3.000
2023-01-01T05:04:20.490Z,3.100
2023-01-01T05:05:30.189Z,3.250
2023-01-01T05:06:26.295Z,2.900
2023-01-01T05:07:22.780Z,3.150
2023-01-01T05:08:33.914Z,2.900
2023-01-01T05:09:28.400Z,2.700
2023-01-01T05:10:20.985Z,3.050
2023-01-01T05:11:23.564Z,3.100
2023-01-01T05:12:21.254Z,3.100
2023-01-01T05:13:31.186Z,2.900
2023-01-01T05:14:22.358Z,3.100
2023-01-01T05:15:23.159Z,3.100
2023-01-01T05:16:29.963Z,3.000
2023-01-01T05:17:24.154Z,3.200
2023-01-01T05:18:22.112Z,3.050
2023-01-01T05:19:21.426Z,3.150
2023-01-01T05:20:26.277Z,3.000
2023-01-01T05:21:22.286Z,2.900
2023-01-01T05:22:33.962Z,3.050
2023-01-01T05:23:28.061Z,3.000
2023-01-01T05:24:29.189Z,2.800
2023-01-01T05:25:20.517Z,2.900
2023-01-01T05:26:25.024Z,2.900
2023-01-01T05:27:23.144Z,3.100
2023-01-01T05:28:22.210Z,3.000
2023-01-01T05:29:32.642Z,3.000
2023-01-01T05:30:28.554Z,2.650
2023-01-01T05:31:25.790Z,2.800
2023-01-01T05:32:20.347Z,2.900
2023-01-01T05:33:30.453Z,2.900
2023-01-01T05:34:22.822Z,3.100
2023-01-01T05:35:26.976Z,2.650
2023-01-01T05:36:47.727Z,2.900
2023-01-01T05:37:28.668Z,3.100
2023-01-01T05:38:24.265Z,3.050
2023-01-01T05:39:22.029Z,3.000
2023-01-01T05:40:33.872Z,2.850
2023-01-01T05:41:26.739Z,3.100
2023-01-01T05:42:25.128Z,3.200
2023-01-01T05:43:22.196Z,3.050
2023-01-01T05:44:30.370Z,2.700
2023-01-01T05:45:26.188Z,3.050
2023-01-01T05:46:24.629Z,3.100
2023-01-01T05:47:30.404Z,2.800
2023-01-01T05:48:30.202Z,3.100
2023-01-01T05:49:23.667Z,2.950
2023-01-01T05:50:21.937Z,2.800
2023-01-01T05:51:28.502Z,3.200
2023-01-01T05:52:26.986Z,2.900
2023-01-01T05:53:20.634Z,3.000
2023-01-01T05:54:30.447Z,3.150
2023-01-01T05:55:26.551Z,2.900
2023-01-01T05:56:23.609Z,2.800
2023-01-01T05:57:22.615Z,3.000
2023-01-01T05:58:31.094Z,2.900
2023-01-01T05:59:24.466Z,2.900
2023-01-01T06:00:24.668Z,2.700
2023-01-01T06:01:31.777Z,3.100
2023-01-01T06:02:26.539Z,3.000
2023-01-01T06:03:31.484Z,2.900
2023-01-01T06:04:23.918Z,2.850
2023-01-01T06:05:23.072Z,3.200
2023-01-01T06:06:25.108Z,2.950
2023-01-01T06:07:39.344Z,2.850
2023-01-01T06:08:30.255Z,2.800
2023-01-01T06:09:27.527Z,2.950
2023-01-01T06:10:22.422Z,2.800
2023-01-01T06:11:21.507Z,3.050
2023-01-01T06:12:20.311Z,2.950
2023-01-01T06:13:20.693Z,2.900
2023-01-01T06:14:22.392Z,2.950
2023-01-01T06:15:21.765Z,2.850
2023-01-01T06:16:43.188Z,2.900
2023-01-01T06:17:26.940Z,3.000
2023-01-01T06:18:32.885Z,2.800
2023-01-01T06:19:24.562Z,3.200
2023-01-01T06:20:26.392Z,2.650
2023-01-01T06:21:21.172Z,2.800
2023-01-01T06:22:24.909Z,2.600
2023-01-01T06:23:27.342Z,2.950
2023-01-01T06:24:22.466Z,2.850
2023-01-01T06:25:36.330Z,2.700
2023-01-01T06:26:19.891Z,2.900
2023-01-01T06:27:24.339Z,3.200
2023-01-01T06:28:20.396Z,2.900
2023-01-01T06:29:27.441Z,3.000
2023-01-01T06:30:26.287Z,2.850
2023-01-01T06:31:24.848Z,2.900
2023-01-01T06:32:34.263Z,2.900
2023-01-01T06:33:22.846Z,3.000
2023-01-01T06:34:29.203Z,2.950
2023-01-01T06:35:20.255Z,3.100
2023-01-01T06:36:30.856Z,2.950
2023-01-01T06:37:28.241Z,3.100
2023-01-01T06:38:22.227Z,3.050
2023-01-01T06:39:38.814Z,3.300
2023-01-01T06:40:31.070Z,3.050
2023-01-01T06:41:24.854Z,3.400
2023-01-01T06:42:27.802Z,3.200
2023-01-01T06:43:23.696Z,3.150
2023-01-01T06:44:20.915Z,3.300
2023-01-01T06:45:24.744Z,3.100
2023-01-01T06:46:32.543Z,3.500
2023-01-01T06:47:30.658Z,3.100
2023-01-01T06:48:24.676Z,2.900
2023-01-01T06:49:22.262Z,3.050
2023-01-01T06:50:31.261Z,3.100
2023-01-01T06:51:20.817Z,3.100
2023-01-01T06:52:22.768Z,3.200
2023-01-01T06:53:32.727Z,3.100
2023-01-01T06:54:30.147Z,3.100
2023-01-01T06:55:38.814Z,3.100
2023-01-01T06:56:23.737Z,3.000
2023-01-01T06:57:25.059Z,3.250
2023-01-01T06:58:26.559Z,3.150
2023-01-01T06:59:22.576Z,2.900
2023-01-01T07:00:34.730Z,3.400
2023-01-01T07:01:28.544Z,3.200
2023-01-01T07:02:26.272Z,3.000
2023-01-01T07:03:40.796Z,2.900
2023-01-01T07:04:27.180Z,3.100
2023-01-01T07:05:20.174Z,2.950
2023-01-01T07:06:38.079Z,3.150
2023-01-01T07:07:35.836Z,3.150
2023-01-01T07:08:32.042Z,2.900
2023-01-01T07:09:24.531Z,2.900
2023-01-01T07:10:21.176Z,2.900
2023-01-01T07:11:33.120Z,3.000
2023-01-01T07:12:26.498Z,3.000
2023-01-01T07:13:23.002Z,3.150
2023-01-01T07:14:19.675Z,3.100
2023-01-01T07:15:28.639Z,2.900
2023-01-01T07:16:24.484Z,2.900
2023-01-01T07:17:20.588Z,3.200
2023-01-01T07:18:32.072Z,2.850
2023-01-01T07:19:28.767Z,2.900
2023-01-01T07:20:23.063Z,2.700
2023-01-01T07:21:28.827Z,3.050
2023-01-01T07:22:28.304Z,3.000
2023-01-01T07:23:24.428Z,2.900
2023-01-01T07:24:20.540Z,3.050
2023-01-01T07:25:32.797Z,3.000
2023-01-01T07:26:27.900Z,3.200
2023-01-01T07:27:25.582Z,2.900
2023-01-01T07:28:29.318Z,3.100
2023-01-01T07:29:21.510Z,3.050
2023-01-01T07:30:24.928Z,2.900
2023-01-01T07:31:20.955Z,3.150
2023-01-01T07:32:32.410Z,3.200
2023-01-01T07:33:38.108Z,3.000
2023-01-01T07:34:23.895Z,3.100
2023-01-01T07:35:22.589Z,3.150
2023-01-01T07:36:31.849Z,3.100
2023-01-01T07:37:24.901Z,3.100
2023-01-01T07:38:20.443Z,3.050
2023-01-01T07:39:48.740Z,3.050
2023-01-01T07:40:27.774Z,3.000
2023-01-01T07:41:22.705Z,3.000
2023-01-01T07:42:26.945Z,3.400
2023-01-01T07:43:29.663Z,3.100
2023-01-01T07:44:25.616Z,3.200
2023-01-01T07:45:21.375Z,3.100
2023-01-01T07:46:30.740Z,2.900
2023-01-01T07:47:28.733Z,3.100
2023-01-01T07:48:41.633Z,3.300
2023-01-01T07:49:22.924Z,2.850
2023-01-01T07:50:24.800Z,3.050
2023-01-01T07:51:28.527Z,3.400
2023-01-01T07:52:20.281Z,3.200
2023-01-01T07:53:33.593Z,3.150
2023-01-01T07:54:26.816Z,3.050
2023-01-01T07:55:23.510Z,3.300
2023-01-01T07:56:26.520Z,3.100
2023-01-01T07:57:28.821Z,3.050
2023-01-01T07:58:20.475Z,3.300
2023-01-01T07:59:21.603Z,3.150
2023-01-01T08:00:20.024Z,3.150
2023-01-01T08:01:29.206Z,3.100
2023-01-01T08:02:22.913Z,3.300
2023-01-01T08:03:27.792Z,3.300
2023-01-01T08:04:33.157Z,3.050
2023-01-01T08:05:27.039Z,3.150
2023-01-01T08:06:22.760Z,3.200
2023-01-01T08:07:25.120Z,2.900
2023-01-01T08:08:26.516Z,3.150
2023-01-01T08:09:24.471Z,3.000
2023-01-01T08:10:30.819Z,3.100
2023-01-01T08:11:35.383Z,3.400
2023-01-01T08:12:29.454Z,3.050
2023-01-01T08:13:21.126Z,3.200
2023-01-01T08:14:26.361Z,3.000
2023-01-01T08:15:25.862Z,3.150
2023-01-01T08:16:22.676Z,3.100
2023-01-01T08:17:35.008Z,3.000
2023-01-01T08:18:20.463Z,3.000
2023-01-01T08:19:24.616Z,3.050
2023-01-01T08:20:22.417Z,3.200
2023-01-01T08:21:30.955Z,3.200
2023-01-01T08:22:23.234Z,3.100
2023-01-01T08:23:22.575Z,3.050
2023-01-01T08:24:32.565Z,2.800
2023-01-01T08:25:25.271Z,3.100
2023-01-01T08:26:24.515Z,2.800
2023-01-01T08:27:22.403Z,3.200
2023-01-01T08:28:22.480Z,3.250
2023-01-01T08:29:28.078Z,3.000
2023-01-01T08:30:22.487Z,2.800
2023-01-01T08:31:35.394Z,2.900
2023-01-01T08:32:30.244Z,3.150
2023-01-01T08:33:24.378Z,3.200
2023-01-01T08:34:22.337Z,3.000
2023-01-01T08:35:28.289Z,3.000
2023-01-01T08:36:21.678Z,2.950
2023-01-01T08:37:25.051Z,2.900
2023-01-01T08:38:34.221Z,2.750
2023-01-01T08:39:30.464Z,3.100
2023-01-01T08:40:39.090Z,2.950
2023-01-01T08:41:20.829Z,3.050
2023-01-01T08:42:30.853Z,2.900
2023-01-01T08:43:26.867Z,3.150
2023-01-01T08:44:22.336Z,3.200
2023-01-01T08:45:22.012Z,3.100
2023-01-01T08:46:28.962Z,2.850
2023-01-01T08:47:19.564Z,3.000
2023-01-01T08:48:27.077Z,2.900
2023-01-01T08:49:32.339Z,2.850
2023-01-01T08:50:27.829Z,3.400
2023-01-01T08:51:22.859Z,2.900
2023-01-01T08:52:28.774Z,2.900
2023-01-01T08:53:28.612Z,2.750
2023-01-01T08:54:24.367Z,2.800
2023-01-01T08:55:37.094Z,3.000
2023-01-01T08:56:30.504Z,2.900
2023-01-01T08:57:28.301Z,3.000
2023-01-01T08:58:24.436Z,3.000
2023-01-01T08:59:32.819Z,3.100
2023-01-01T09:00:25.113Z,2.850
2023-01-01T09:01:25.823Z,2.800
2023-01-01T09:02:20.428Z,2.700
2023-01-01T09:03:32.208Z,2.850
2023-01-01T09:04:26.603Z,2.900
2023-01-01T09:05:24.929Z,3.000
2023-01-01T09:06:21.395Z,2.900
2023-01-01T09:07:30.237Z,2.950
2023-01-01T09:08:21.051Z,2.800
2023-01-01T09:09:25.647Z,2.800
2023-01-01T09:10:32.730Z,2.900
2023-01-01T09:11:23.879Z,2.900
2023-01-01T09:12:25.056Z,2.800
2023-01-01T09:13:25.692Z,2.600
2023-01-01T09:14:28.538Z,2.700
2023-01-01T09:15:25.120Z,2.600
2023-01-01T09:16:20.757Z,2.950
2023-01-01T09:17:32.841Z,2.900
2023-01-01T09:18:45.150Z,2.800
2023-01-01T09:19:24.750Z,2.600
2023-01-01T09:20:31.242Z,2.700
2023-01-01T09:21:22.926Z,2.650
2023-01-01T09:22:21.543Z,2.900
2023-01-01T09:23:24.830Z,2.700
2023-01-01T09:24:30.386Z,2.850
2023-01-01T09:25:44.206Z,2.800
2023-01-01T09:26:24.203Z,2.700
2023-01-01T09:27:35.381Z,2.600
2023-01-01T09:28:27.183Z,2.700
2023-01-01T09:29:38.651Z,2.500
2023-01-01T09:30:26.881Z,2.700
2023-01-01T09:31:21.957Z,2.750
2023-01-01T09:32:26.489Z,2.750
2023-01-01T09:33:33.079Z,2.800
2023-01-01T09:34:19.692Z,2.800
2023-01-01T09:35:30.376Z,2.500
2023-01-01T09:36:25.296Z,2.600
2023-01-01T09:37:29.295Z,3.000
2023-01-01T09:38:23.991Z,2.800
2023-01-01T09:39:23.204Z,2.650
2023-01-01T09:40:24.298Z,2.900
2023-01-01T09:41:22.837Z,2.600
2023-01-01T09:42:31.183Z,2.800
2023-01-01T09:43:27.622Z,2.600
2023-01-01T09:44:20.427Z,2.500
2023-01-01T09:45:32.445Z,2.700
2023-01-01T09:46:25.104Z,2.750
2023-01-01T09:47:38.650Z,2.800
2023-01-01T09:48:27.389Z,2.700
2023-01-01T09:49:39.549Z,2.800
2023-01-01T09:50:19.653Z,2.500
2023-01-01T09:51:26.060Z,2.700
2023-01-01T09:52:21.660Z,2.600
2023-01-01T09:53:25.686Z,2.500
2023-01-01T09:54:43.441Z,2.450
2023-01-01T09:55:29.810Z,2.700
2023-01-01T09:56:26.410Z,2.700
2023-01-01T09:57:36.672Z,2.750
2023-01-01T09:58:29.433Z,2.600
2023-01-01T09:59:25.444Z,2.400
2023-01-01T10:00:29.908Z,2.650
2023-01-01T10:01:22.959Z,2.600
2023-01-01T10:02:33.488Z,2.500
2023-01-01T10:03:44.540Z,2.700
2023-01-01T10:04:40.663Z,2.500
2023-01-01T10:05:33.463Z,2.600
2023-01-01T10:06:26.950Z,2.500
2023-01-01T10:07:22.242Z,2.500
2023-01-01T10:08:39.272Z,2.400
2023-01-01T10:09:21.713Z,2.600
2023-01-01T10:10:22.489Z,2.600
2023-01-01T10:11:44.603Z,2.800
2023-01-01T10:12:37.417Z,2.500
2023-01-01T10:13:31.821Z,2.550
2023-01-01T10:14:22.439Z,2.300
2023-01-01T10:15:33.597Z,2.600
2023-01-01T10:16:25.454Z,2.500
2023-01-01T10:17:24.859Z,2.650
2023-01-01T10:18:26.900Z,2.600
2023-01-01T10:19:33.733Z,2.700
2023-01-01T10:20:36.681Z,2.400
2023-01-01T10:21:22.327Z,2.400
2023-01-01T10:22:22.818Z,2.450
2023-01-01T10:23:28.822Z,2.600
2023-01-01T10:24:23.920Z,2.300
2023-01-01T10:25:38.150Z,2.200
2023-01-01T10:26:47.275Z,2.600
2023-01-01T10:27:39.230Z,2.300
2023-01-01T10:28:26.082Z,2.400
2023-01-01T10:29:23.155Z,2.300
2023-01-01T10:30:29.371Z,2.600
2023-01-01T10:31:27.107Z,2.400
2023-01-01T10:32:56.856Z,2.500
2023-01-01T10:33:37.937Z,2.550
2023-01-01T10:34:42.040Z,2.550
2023-01-01T10:35:28.367Z,2.400
2023-01-01T10:36:29.080Z,2.450
2023-01-01T10:37:20.276Z,2.900
2023-01-01T10:39:23.573Z,2.500
2023-01-01T10:40:56.081Z,2.600
2023-01-01T10:41:27.118Z,2.200
2023-01-01T10:42:28.584Z,2.400
2023-01-01T10:43:32.173Z,2.600
2023-01-01T10:44:26.873Z,2.400
2023-01-01T10:45:39.033Z,2.350
2023-01-01T10:46:31.291Z,2.200
2023-01-01T10:47:30.440Z,2.150
2023-01-01T10:48:46.317Z,2.600
2023-01-01T10:49:33.357Z,2.500
2023-01-01T10:50:35.280Z,2.400
2023-01-01T10:51:28.219Z,2.400
2023-01-01T10:52:25.071Z,2.500
2023-01-01T10:53:27.003Z,2.500
2023-01-01T10:54:31.093Z,2.300
2023-01-01T10:55:49.616Z,2.650
2023-01-01T10:56:37.270Z,2.200
2023-01-01T10:57:21.940Z,2.200
2023-01-01T10:58:29.685Z,2.500
2023-01-01T10:59:26.589Z,2.500
2023-01-01T11:00:29.551Z,2.200
2023-01-01T11:01:31.126Z,2.400
2023-01-01T11:02:22.558Z,2.450
2023-01-01T11:03:19.642Z,2.200
2023-01-01T11:04:26.364Z,2.700
2023-01-01T11:05:37.473Z,2.250
2023-01-01T11:06:30.828Z,2.100
2023-01-01T11:07:23.800Z,2.500
2023-01-01T11:08:19.805Z,2.400
2023-01-01T11:09:25.725Z,2.200
2023-01-01T11:10:39.055Z,2.400
2023-01-01T11:11:28.433Z,2.300
2023-01-01T11:13:17.301Z,2.400
2023-01-01T11:13:35.143Z,2.400
2023-01-01T11:14:26.247Z,2.500
2023-01-01T11:15:24.526Z,2.500
2023-01-01T11:16:42.698Z,2.200
2023-01-01T11:17:23.621Z,2.350
2023-01-01T11:18:32.372Z,2.400
2023-01-01T11:19:51.079Z,2.400
2023-01-01T11:20:22.156Z,2.450
2023-01-01T11:21:32.881Z,2.350
2023-01-01T11:22:27.998Z,2.600
2023-01-01T11:23:37.576Z,2.400
2023-01-01T11:24:28.603Z,2.350
2023-01-01T11:25:22.428Z,2.400
2023-01-01T11:26:20.912Z,2.300
2023-01-01T11:27:42.590Z,2.200
2023-01-01T11:28:35.456Z,2.450
2023-01-01T11:29:30.558Z,2.900
2023-01-01T11:30:20.123Z,2.400
2023-01-01T11:31:32.410Z,2.500
2023-01-01T11:32:26.666Z,2.400
2023-01-01T11:33:24.694Z,2.500
2023-01-01T11:34:46.652Z,2.300
2023-01-01T11:35:39.748Z,2.500
2023-01-01T11:36:31.770Z,2.600
2023-01-01T11:37:25.801Z,2.400
2023-01-01T11:38:37.944Z,2.600
2023-01-01T11:39:30.042Z,2.450
2023-01-01T11:40:23.769Z,2.500
2023-01-01T11:41:50.877Z,2.400
2023-01-01T11:42:43.939Z,2.400
2023-01-01T11:43:30.639Z,2.600
2023-01-01T11:44:30.394Z,2.500
2023-01-01T11:45:22.980Z,2.700
2023-01-01T11:46:37.081Z,2.400
2023-01-01T11:47:26.562Z,2.500
2023-01-01T11:48:20.700Z,2.450
2023-01-01T11:49:37.820Z,2.500
2023-01-01T11:50:41.192Z,2.600
2023-01-01T11:51:26.847Z,2.500
2023-01-01T11:52:25.455Z,2.350
2023-01-01T11:53:37.690Z,2.500
2023-01-01T11:54:25.348Z,2.500
2023-01-01T11:55:20.259Z,2.450
2023-01-01T11:56:53.826Z,2.300
2023-01-01T11:57:44.309Z,2.250
2023-01-01T11:58:30.084Z,2.500
2023-01-01T11:59:29.013Z,2.800
2023-01-01T12:00:24.413Z,2.550
2023-01-01T12:01:37.130Z,2.500
2023-01-01T12:02:22.602Z,2.200
2023-01-01T12:03:21.265Z,2.700
2023-01-01T12:04:45.337Z,2.400
2023-01-01T12:05:23.095Z,2.600
2023-01-01T12:06:27.496Z,2.450
2023-01-01T12:07:28.391Z,2.600
2023-01-01T12:08:32.602Z,2.400
2023-01-01T12:09:25.625Z,2.200
2023-01-01T12:10:25.374Z,2.600
2023-01-01T12:11:20.480Z,2.400
2023-01-01T12:12:35.184Z,2.500
2023-01-01T12:13:21.068Z,2.400
2023-01-01T12:14:22.365Z,2.500
2023-01-01T12:15:24.914Z,2.600
2023-01-01T12:16:19.856Z,2.500
2023-01-01T12:17:24.975Z,2.400
2023-01-01T12:18:24.119Z,2.450
2023-01-01T12:19:46.261Z,2.500
2023-01-01T12:20:25.158Z,2.300
2023-01-01T12:21:52.923Z,2.450
2023-01-01T12:22:29.267Z,2.200
2023-01-01T12:23:20.332Z,2.350
2023-01-01T12:24:36.297Z,2.300
2023-01-01T12:25:20.486Z,2.400
2023-01-01T12:26:20.217Z,2.400
2023-01-01T12:27:26.746Z,2.700
2023-01-01T12:28:25.270Z,2.600
2023-01-01T12:29:34.480Z,2.300
2023-01-01T12:30:25.810Z,2.800
2023-01-01T12:31:21.625Z,2.600
2023-01-01T12:32:20.793Z,2.500
2023-01-01T12:33:25.607Z,2.550
2023-01-01T12:34:27.581Z,2.450
2023-01-01T12:35:22.861Z,2.600
2023-01-01T12:36:32.579Z,2.450
2023-01-01T12:37:29.737Z,2.550
2023-01-01T12:38:21.789Z,2.300
2023-01-01T12:39:27.852Z,2.300
2023-01-01T12:40:28.919Z,2.500
2023-01-01T12:41:23.936Z,2.500
2023-01-01T12:42:19.578Z,2.200
2023-01-01T12:43:35.156Z,2.550
2023-01-01T12:44:28.532Z,2.400
2023-01-01T12:45:31.308Z,2.450
2023-01-01T12:46:42.713Z,2.300
2023-01-01T12:47:35.212Z,2.500
2023-01-01T12:48:28.287Z,2.300
2023-01-01T12:49:23.484Z,2.600
2023-01-01T12:50:23.544Z,2.700
2023-01-01T12:51:36.344Z,2.450
2023-01-01T12:52:31.064Z,2.600
2023-01-01T12:53:22.188Z,2.700
2023-01-01T12:54:30.503Z,2.450
2023-01-01T12:55:28.874Z,2.600
2023-01-01T12:56:28.372Z,2.600
2023-01-01T12:57:36.374Z,2.800
2023-01-01T12:58:28.499Z,2.700
2023-01-01T12:59:36.709Z,2.550
2023-01-01T13:00:20.716Z,2.400
2023-01-01T13:01:21.841Z,2.500
2023-01-01T13:02:27.730Z,2.500
2023-01-01T13:03:28.919Z,2.300
2023-01-01T13:04:23.203Z,2.600